Time;durP1;ratioP1;P1;durP2;ratioP2;P2;SDS_P1;SDS_P2;PMS_P1;PMS_P2;Temp;Humidity;BMP_temperature;BMP_pressure;BME280_temperature;BME280_humidity;BME280_pressure;Samples;Min_cycle;Max_cycle;Signal;HPM_P1;HPM_P2
2022/05/19 00:01:01;;;;;;;;;;;21.20;72.50;;;;;;5127809;28;20018;-92
2022/05/19 00:03:23;;;;;;;;;;;21.20;72.70;;;;;;5113509;28;19915;-91
2022/05/19 00:05:49;;;;;;;;;;;21.10;72.20;;;;;;5113682;28;19908;-91
2022/05/19 00:08:14;;;;;;;;;;;21.10;71.80;;;;;;5113691;28;19915;-91
2022/05/19 00:10:40;;;;;;;;;;;21.10;71.80;;;;;;5113604;28;19908;-91
2022/05/19 00:13:05;;;;;;;;;;;21.20;71.90;;;;;;5113710;28;20320;-91
2022/05/19 00:15:31;;;;;;;;;;;21.20;70.80;;;;;;5113625;28;20361;-91
2022/05/19 00:17:56;;;;;;;;;;;21.10;70.10;;;;;;5113525;28;19908;-91
2022/05/19 00:20:22;;;;;;;;;;;21.10;70.10;;;;;;5113764;28;19923;-91
2022/05/19 00:22:47;;;;;;;;;;;21.10;70.00;;;;;;5113442;28;19911;-91
2022/05/19 00:25:13;;;;;;;;;;;21.00;68.50;;;;;;5113479;28;19908;-91
2022/05/19 00:27:38;;;;;;;;;;;21.10;68.60;;;;;;5113456;28;19908;-91
2022/05/19 00:30:04;;;;;;;;;;;21.10;67.60;;;;;;5115184;28;19915;-92
2022/05/19 00:32:30;;;;;;;;;;;21.00;65.90;;;;;;5134117;28;19907;-91
2022/05/19 00:34:55;;;;;;;;;;;21.00;66.30;;;;;;5133930;28;19908;-91
2022/05/19 00:37:21;;;;;;;;;;;21.00;64.40;;;;;;5133920;28;19945;-92
2022/05/19 00:39:46;;;;;;;;;;;20.90;64.80;;;;;;5133796;28;19992;-92
2022/05/19 00:45:00;;;;;;;;;;;20.90;63.40;;;;;;5134222;28;20461;-91
2022/05/19 00:47:28;;;;;;;;;;;20.80;63.50;;;;;;5133937;28;19911;-92
2022/05/19 00:49:54;;;;;;;;;;;20.80;63.30;;;;;;5133859;28;20019;-92
2022/05/19 00:52:27;;;;;;;;;;;20.70;63.60;;;;;;5133754;28;20352;-92
2022/05/19 00:54:58;;;;;;;;;;;20.70;62.50;;;;;;5133875;28;19911;-91
2022/05/19 00:57:25;;;;;;;;;;;20.60;62.70;;;;;;5133773;28;19907;-92
2022/05/19 00:59:55;;;;;;;;;;;20.70;62.70;;;;;;5133825;28;20360;-92
2022/05/19 01:02:23;;;;;;;;;;;20.60;62.90;;;;;;5133475;28;20395;-92
2022/05/19 01:04:55;;;;;;;;;;;20.60;62.70;;;;;;5135939;27;19930;-91
2022/05/19 01:07:23;;;;;;;;;;;20.60;62.80;;;;;;5137516;27;19945;-91
2022/05/19 01:09:50;;;;;;;;;;;20.50;62.80;;;;;;5137294;27;19907;-92
2022/05/19 01:12:16;;;;;;;;;;;20.50;62.90;;;;;;5137106;27;19942;-92
2022/05/19 01:14:43;;;;;;;;;;;20.40;62.90;;;;;;5137258;27;19998;-92
2022/05/19 01:17:09;;;;;;;;;;;20.40;62.80;;;;;;5137024;27;20375;-91
2022/05/19 01:19:37;;;;;;;;;;;20.40;63.40;;;;;;5137195;27;19956;-91
2022/05/19 01:22:26;;;;;;;;;;;20.40;62.40;;;;;;5136853;27;20006;-91
2022/05/19 01:25:00;;;;;;;;;;;20.30;62.20;;;;;;5098136;27;20399;-91
2022/05/19 01:27:27;;;;;;;;;;;20.30;61.80;;;;;;5136948;27;20310;-92
2022/05/19 01:29:54;;;;;;;;;;;20.30;61.70;;;;;;5136914;27;19938;-91
2022/05/19 01:32:25;;;;;;;;;;;20.30;61.60;;;;;;5118428;27;19994;-92
2022/05/19 01:34:50;;;;;;;;;;;20.30;61.00;;;;;;5136754;27;19946;-92
2022/05/19 01:37:16;;;;;;;;;;;20.20;60.80;;;;;;5118298;27;19918;-92
2022/05/19 01:39:44;;;;;;;;;;;20.20;61.00;;;;;;5136545;27;19917;-91
2022/05/19 01:42:15;;;;;;;;;;;20.10;60.60;;;;;;5136487;27;19919;-92
2022/05/19 01:44:50;;;;;;;;;;;20.20;60.70;;;;;;5136598;27;19908;-92
2022/05/19 01:47:20;;;;;;;;;;;20.20;60.00;;;;;;5137168;27;19941;-91
2022/05/19 01:49:49;;;;;;;;;;;20.00;58.10;;;;;;5136529;27;19960;-91
2022/05/19 01:52:22;;;;;;;;;;;20.10;57.20;;;;;;5136368;27;19911;-92
2022/05/19 01:55:03;;;;;;;;;;;20.00;57.00;;;;;;5136404;27;20518;-92
2022/05/19 01:57:32;;;;;;;;;;;20.00;56.20;;;;;;5136414;27;19961;-92
2022/05/19 02:00:07;;;;;;;;;;;20.00;55.00;;;;;;5136488;27;19911;-91
2022/05/19 02:02:51;;;;;;;;;;;20.00;54.60;;;;;;5136207;27;19908;-91
2022/05/19 02:05:36;;;;;;;;;;;19.90;54.20;;;;;;5135880;27;19942;-91
2022/05/19 02:08:03;;;;;;;;;;;19.80;53.90;;;;;;5136082;27;20421;-91
2022/05/19 02:10:33;;;;;;;;;;;19.80;53.80;;;;;;5136094;27;19907;-92
2022/05/19 02:13:00;;;;;;;;;;;19.80;53.90;;;;;;5136057;27;20360;-91
2022/05/19 02:15:27;;;;;;;;;;;19.80;54.10;;;;;;5135950;27;19915;-92
2022/05/19 02:17:54;;;;;;;;;;;19.70;54.10;;;;;;5136101;27;19919;-91
2022/05/19 02:20:21;;;;;;;;;;;19.60;53.90;;;;;;5136234;27;19950;-91
2022/05/19 02:22:47;;;;;;;;;;;19.50;53.80;;;;;;5135784;27;19915;-91
2022/05/19 02:25:16;;;;;;;;;;;19.50;53.90;;;;;;5135889;27;20017;-92
2022/05/19 02:27:50;;;;;;;;;;;19.40;53.80;;;;;;5135850;27;19907;-92
2022/05/19 02:30:18;;;;;;;;;;;19.30;53.50;;;;;;5135915;27;19968;-91
2022/05/19 02:32:44;;;;;;;;;;;19.30;53.70;;;;;;5135597;27;19953;-91
2022/05/19 02:35:11;;;;;;;;;;;19.30;54.00;;;;;;5135594;27;19956;-91
2022/05/19 02:37:36;;;;;;;;;;;19.30;54.60;;;;;;5135668;27;19915;-91
2022/05/19 02:40:03;;;;;;;;;;;19.30;54.40;;;;;;5135581;27;19920;-92
2022/05/19 02:42:29;;;;;;;;;;;19.20;54.80;;;;;;5135514;27;19907;-91
2022/05/19 02:44:55;;;;;;;;;;;19.20;53.90;;;;;;5135263;27;19938;-92
2022/05/19 02:47:20;;;;;;;;;;;19.20;53.90;;;;;;5135405;27;19960;-91
2022/05/19 02:49:46;;;;;;;;;;;19.10;53.90;;;;;;5135362;27;19914;-91
2022/05/19 02:52:11;;;;;;;;;;;19.10;54.10;;;;;;5135312;27;19907;-91
2022/05/19 02:54:37;;;;;;;;;;;19.10;54.00;;;;;;5135169;27;19915;-91
2022/05/19 02:57:02;;;;;;;;;;;19.00;53.30;;;;;;5135223;27;20288;-91
2022/05/19 02:59:30;;;;;;;;;;;19.10;53.40;;;;;;5135145;27;20391;-92
2022/05/19 03:01:56;;;;;;;;;;;19.10;53.70;;;;;;5135057;27;19911;-91
2022/05/19 03:04:21;;;;;;;;;;;19.00;54.90;;;;;;5134956;27;19950;-91
2022/05/19 03:06:47;;;;;;;;;;;19.00;53.80;;;;;;5135224;27;19914;-92
2022/05/19 03:09:12;;;;;;;;;;;18.90;53.20;;;;;;5135256;27;20435;-91
2022/05/19 03:11:38;;;;;;;;;;;18.90;53.40;;;;;;5134939;27;20276;-91
2022/05/19 03:14:04;;;;;;;;;;;18.90;53.50;;;;;;5135070;27;19965;-91
2022/05/19 03:16:29;;;;;;;;;;;18.90;53.40;;;;;;5134887;27;20457;-91
2022/05/19 03:18:55;;;;;;;;;;;18.80;53.40;;;;;;5134902;27;19912;-91
2022/05/19 03:21:20;;;;;;;;;;;18.80;53.60;;;;;;5134773;27;19912;-91
2022/05/19 03:23:46;;;;;;;;;;;18.80;53.50;;;;;;5134522;27;19945;-91
2022/05/19 03:26:11;;;;;;;;;;;18.80;54.70;;;;;;5134602;27;19908;-91
2022/05/19 03:28:37;;;;;;;;;;;18.80;54.30;;;;;;5134459;27;20372;-91
2022/05/19 03:31:03;;;;;;;;;;;18.80;54.00;;;;;;5116194;27;19907;-91
2022/05/19 03:33:28;;;;;;;;;;;18.80;56.30;;;;;;5116283;27;19911;-91
2022/05/19 03:35:57;;;;;;;;;;;18.80;55.00;;;;;;5134389;27;19912;-91
2022/05/19 03:38:23;;;;;;;;;;;18.90;54.20;;;;;;5134496;27;19994;-91
2022/05/19 03:40:48;;;;;;;;;;;18.90;53.90;;;;;;5134378;27;20464;-91
2022/05/19 03:43:14;;;;;;;;;;;18.80;53.90;;;;;;5134514;27;19943;-91
2022/05/19 03:45:39;;;;;;;;;;;18.80;53.90;;;;;;5134329;27;19912;-91
2022/05/19 03:48:05;;;;;;;;;;;18.80;54.10;;;;;;5134430;27;19954;-91
2022/05/19 03:50:31;;;;;;;;;;;18.80;54.30;;;;;;5134417;28;19908;-91
2022/05/19 03:52:56;;;;;;;;;;;18.80;54.70;;;;;;5134455;28;19952;-91
2022/05/19 03:55:22;;;;;;;;;;;18.80;54.30;;;;;;5134645;28;20355;-91
2022/05/19 03:57:48;;;;;;;;;;;18.90;53.70;;;;;;5134364;28;20356;-91
2022/05/19 04:00:14;;;;;;;;;;;19.00;53.40;;;;;;5134141;28;19915;-91
2022/05/19 04:02:40;;;;;;;;;;;19.00;53.00;;;;;;5134251;28;19915;-91
2022/05/19 04:05:06;;;;;;;;;;;19.10;53.20;;;;;;5134035;28;19950;-91
2022/05/19 04:07:32;;;;;;;;;;;19.10;52.60;;;;;;5134266;28;19927;-91
2022/05/19 04:09:58;;;;;;;;;;;19.20;52.90;;;;;;5134217;28;19908;-91
2022/05/19 04:12:23;;;;;;;;;;;19.20;52.30;;;;;;5134176;28;19907;-91
2022/05/19 04:14:49;;;;;;;;;;;19.20;52.50;;;;;;5133946;28;19911;-91
2022/05/19 04:17:15;;;;;;;;;;;19.30;52.50;;;;;;5134147;28;19939;-91
2022/05/19 04:19:40;;;;;;;;;;;19.30;52.10;;;;;;5134110;28;19944;-91
2022/05/19 04:22:06;;;;;;;;;;;19.30;52.40;;;;;;5133984;28;19919;-91
2022/05/19 04:24:32;;;;;;;;;;;19.30;52.40;;;;;;5133799;28;19909;-91
2022/05/19 04:26:57;;;;;;;;;;;19.30;52.10;;;;;;5134107;28;20403;-91
2022/05/19 04:29:23;;;;;;;;;;;19.30;52.30;;;;;;5133958;28;20015;-91
2022/05/19 04:31:48;;;;;;;;;;;19.40;51.70;;;;;;5134246;28;19950;-91
2022/05/19 04:34:14;;;;;;;;;;;19.40;51.90;;;;;;5133796;28;19994;-91
2022/05/19 04:36:40;;;;;;;;;;;19.40;52.40;;;;;;5133902;28;19954;-91
2022/05/19 04:39:05;;;;;;;;;;;19.50;52.40;;;;;;5134609;27;19956;-92
2022/05/19 04:41:31;;;;;;;;;;;19.60;52.20;;;;;;5137787;27;19933;-92
2022/05/19 04:43:56;;;;;;;;;;;19.50;51.80;;;;;;5137590;27;19943;-92
2022/05/19 04:46:22;;;;;;;;;;;19.50;52.20;;;;;;5137863;27;19908;-92
2022/05/19 04:48:47;;;;;;;;;;;19.50;52.40;;;;;;5137739;27;19915;-91
2022/05/19 04:51:13;;;;;;;;;;;19.40;52.20;;;;;;5137461;27;20319;-91
2022/05/19 04:53:39;;;;;;;;;;;19.30;52.60;;;;;;5137783;27;19923;-91
2022/05/19 04:56:04;;;;;;;;;;;19.30;53.50;;;;;;5137467;27;20073;-92
2022/05/19 04:58:30;;;;;;;;;;;19.30;55.00;;;;;;5137197;27;19912;-91
2022/05/19 05:00:55;;;;;;;;;;;19.30;56.40;;;;;;5137245;27;19912;-91
2022/05/19 05:03:21;;;;;;;;;;;19.30;56.90;;;;;;5137659;27;20019;-92
2022/05/19 05:05:47;;;;;;;;;;;19.30;55.90;;;;;;5135873;27;19912;-91
2022/05/19 05:08:12;;;;;;;;;;;19.30;55.40;;;;;;5137614;27;20002;-91
2022/05/19 05:10:39;;;;;;;;;;;19.40;56.40;;;;;;5136858;27;19920;-90
2022/05/19 05:13:09;;;;;;;;;;;19.50;56.70;;;;;;5137211;27;19930;-92
2022/05/19 05:15:34;;;;;;;;;;;19.70;55.40;;;;;;5137042;27;19918;-91
2022/05/19 05:18:00;;;;;;;;;;;19.70;55.30;;;;;;5135937;27;19948;-91
2022/05/19 05:20:26;;;;;;;;;;;19.80;55.80;;;;;;5136488;27;20276;-91
2022/05/19 05:22:51;;;;;;;;;;;19.80;55.80;;;;;;5136044;27;20376;-91
2022/05/19 05:25:17;;;;;;;;;;;19.90;55.50;;;;;;5136279;27;19971;-91
2022/05/19 05:27:43;;;;;;;;;;;20.00;55.80;;;;;;5135770;27;20318;-90
2022/05/19 05:30:09;;;;;;;;;;;20.10;56.30;;;;;;5133972;27;19915;-91
2022/05/19 05:32:35;;;;;;;;;;;20.20;56.40;;;;;;5135371;27;19912;-91
2022/05/19 05:35:01;;;;;;;;;;;20.30;56.30;;;;;;5134877;27;20375;-91
2022/05/19 05:37:27;;;;;;;;;;;20.30;56.20;;;;;;5134396;27;19919;-90
2022/05/19 05:39:52;;;;;;;;;;;20.30;55.70;;;;;;5135103;27;19923;-91
2022/05/19 05:42:18;;;;;;;;;;;20.30;55.20;;;;;;5133785;27;19923;-91
2022/05/19 05:44:43;;;;;;;;;;;20.30;55.40;;;;;;5134738;27;19919;-90
2022/05/19 05:47:09;;;;;;;;;;;20.30;55.40;;;;;;5131464;27;19957;-90
2022/05/19 05:49:35;;;;;;;;;;;20.30;56.10;;;;;;5114790;27;19908;-91
2022/05/19 05:52:00;;;;;;;;;;;20.20;55.90;;;;;;5124853;27;19911;-90
2022/05/19 05:54:26;;;;;;;;;;;20.30;56.60;;;;;;5136443;27;19916;-90
2022/05/19 05:56:52;;;;;;;;;;;20.30;57.10;;;;;;5134473;27;19912;-91
2022/05/19 05:59:18;;;;;;;;;;;20.30;56.10;;;;;;5132667;27;19949;-91
2022/05/19 06:01:43;;;;;;;;;;;20.30;56.60;;;;;;5134762;27;19949;-90
2022/05/19 06:04:09;;;;;;;;;;;20.40;55.80;;;;;;5131784;27;19930;-91
2022/05/19 06:06:34;;;;;;;;;;;20.50;56.30;;;;;;5133091;27;20361;-91
2022/05/19 06:09:00;;;;;;;;;;;20.60;56.10;;;;;;5132996;27;19919;-91
2022/05/19 06:11:25;;;;;;;;;;;20.50;56.20;;;;;;5133260;27;20686;-91
2022/05/19 06:13:52;;;;;;;;;;;20.70;55.80;;;;;;5131609;27;20372;-90
2022/05/19 06:16:17;;;;;;;;;;;20.80;56.10;;;;;;5131942;27;19936;-91
2022/05/19 06:18:43;;;;;;;;;;;20.80;55.30;;;;;;5132235;27;20006;-90
2022/05/19 06:21:08;;;;;;;;;;;20.80;55.70;;;;;;5132819;27;19953;-90
2022/05/19 06:23:34;;;;;;;;;;;20.90;55.50;;;;;;5134438;27;19912;-91
2022/05/19 06:26:00;;;;;;;;;;;21.00;55.30;;;;;;5131749;27;19934;-91
2022/05/19 06:28:26;;;;;;;;;;;21.10;54.60;;;;;;5134375;27;20477;-90
2022/05/19 06:30:51;;;;;;;;;;;21.20;54.90;;;;;;5132874;27;19911;-90
2022/05/19 06:33:20;;;;;;;;;;;21.20;54.80;;;;;;5133373;27;20464;-90
2022/05/19 06:35:46;;;;;;;;;;;21.30;53.10;;;;;;5115194;27;20398;-90
2022/05/19 06:38:12;;;;;;;;;;;21.30;53.60;;;;;;5135090;27;20002;-90
2022/05/19 06:40:37;;;;;;;;;;;21.30;54.80;;;;;;5132754;27;20265;-90
2022/05/19 06:43:08;;;;;;;;;;;21.30;55.60;;;;;;5133934;27;19947;-90
2022/05/19 06:45:33;;;;;;;;;;;21.30;54.50;;;;;;5114271;27;20288;-90
2022/05/19 06:47:59;;;;;;;;;;;21.50;53.30;;;;;;5131067;27;19916;-90
2022/05/19 06:50:25;;;;;;;;;;;21.50;54.00;;;;;;5134592;27;19912;-90
2022/05/19 06:52:55;;;;;;;;;;;21.50;54.10;;;;;;5133329;27;19946;-91
2022/05/19 06:55:22;;;;;;;;;;;21.60;54.10;;;;;;5132651;27;20347;-90
2022/05/19 06:57:47;;;;;;;;;;;21.60;54.60;;;;;;5132213;27;19912;-90
2022/05/19 07:00:16;;;;;;;;;;;21.60;54.70;;;;;;5133077;27;19919;-90
2022/05/19 07:02:45;;;;;;;;;;;21.60;54.20;;;;;;5130714;27;19926;-90
2022/05/19 07:05:12;;;;;;;;;;;21.60;53.40;;;;;;5116023;27;19974;-90
2022/05/19 07:07:37;;;;;;;;;;;21.70;54.50;;;;;;5130571;27;19918;-90
2022/05/19 07:10:03;;;;;;;;;;;21.70;52.60;;;;;;5132384;27;19912;-90
2022/05/19 07:12:28;;;;;;;;;;;21.70;54.30;;;;;;5131620;27;20035;-91
2022/05/19 07:14:55;;;;;;;;;;;21.70;51.80;;;;;;5132386;27;19923;-90
2022/05/19 07:17:21;;;;;;;;;;;21.80;52.10;;;;;;5133062;27;20383;-91
2022/05/19 07:22:33;;;;;;;;;;;21.90;53.40;;;;;;5127573;27;19922;-91
2022/05/19 07:24:59;;;;;;;;;;;22.00;53.30;;;;;;5129729;27;19918;-90
2022/05/19 07:27:25;;;;;;;;;;;22.00;52.40;;;;;;5131010;27;19919;-91
2022/05/19 07:29:50;;;;;;;;;;;22.10;52.50;;;;;;5126661;27;19911;-91
2022/05/19 07:32:16;;;;;;;;;;;22.20;52.80;;;;;;5131015;27;19912;-90
2022/05/19 07:34:41;;;;;;;;;;;22.20;52.20;;;;;;5130704;27;19919;-90
2022/05/19 07:37:07;;;;;;;;;;;22.30;52.10;;;;;;5127360;27;20005;-91
2022/05/19 07:39:33;;;;;;;;;;;22.30;51.10;;;;;;5119842;22;19974;-91
2022/05/19 07:41:59;;;;;;;;;;;22.40;54.30;;;;;;5079769;28;19989;-90
2022/05/19 07:44:25;;;;;;;;;;;22.40;53.60;;;;;;5086583;28;20369;-90
2022/05/19 07:46:51;;;;;;;;;;;22.50;53.80;;;;;;5097365;28;19935;-90
2022/05/19 07:49:17;;;;;;;;;;;22.60;51.00;;;;;;5088508;28;20285;-90
2022/05/19 07:51:44;;;;;;;;;;;22.60;52.80;;;;;;5089378;28;20391;-90
2022/05/19 07:54:14;;;;;;;;;;;22.70;52.00;;;;;;5086955;28;20019;-90
2022/05/19 07:56:40;;;;;;;;;;;22.80;51.60;;;;;;5091305;28;20436;-91
2022/05/19 07:59:06;;;;;;;;;;;22.80;51.70;;;;;;5089775;28;19966;-91
2022/05/19 08:01:32;;;;;;;;;;;22.80;51.50;;;;;;5091062;28;20657;-90
2022/05/19 08:03:58;;;;;;;;;;;22.80;50.30;;;;;;5090388;28;20005;-90
2022/05/19 08:06:23;;;;;;;;;;;22.90;51.40;;;;;;5086959;28;19912;-91
2022/05/19 08:08:49;;;;;;;;;;;22.90;50.20;;;;;;5090499;28;19923;-91
2022/05/19 08:11:14;;;;;;;;;;;22.80;50.80;;;;;;5090090;28;19920;-91
2022/05/19 08:16:24;;;;;;;;;;;23.00;51.70;;;;;;5095217;28;19923;-90
2022/05/19 08:18:50;;;;;;;;;;;23.00;51.00;;;;;;5093196;28;19916;-91
2022/05/19 08:21:17;;;;;;;;;;;23.10;51.90;;;;;;5096546;28;19916;-90
2022/05/19 08:23:44;;;;;;;;;;;23.00;49.70;;;;;;5080269;28;19952;-90
2022/05/19 08:26:11;;;;;;;;;;;23.10;49.20;;;;;;5093307;28;19969;-90
2022/05/19 08:28:37;;;;;;;;;;;23.10;51.50;;;;;;5092724;28;20096;-91
2022/05/19 08:31:05;;;;;;;;;;;23.20;50.40;;;;;;5092097;28;19963;-90
2022/05/19 08:33:30;;;;;;;;;;;23.20;53.10;;;;;;5091475;28;20201;-91
2022/05/19 08:35:56;;;;;;;;;;;23.20;50.40;;;;;;5094122;28;19912;-90
2022/05/19 08:38:22;;;;;;;;;;;23.20;49.00;;;;;;5094013;28;19920;-91
2022/05/19 08:41:02;;;;;;;;;;;23.30;52.10;;;;;;5076810;28;19981;-91
2022/05/19 08:43:30;;;;;;;;;;;23.30;48.60;;;;;;5092408;28;19950;-91
2022/05/19 08:45:59;;;;;;;;;;;23.10;48.20;;;;;;5096145;28;19959;-91
2022/05/19 08:48:26;;;;;;;;;;;23.20;51.60;;;;;;5092978;28;19912;-91
2022/05/19 08:51:03;;;;;;;;;;;23.30;49.40;;;;;;5088677;28;19912;-91
2022/05/19 08:53:30;;;;;;;;;;;23.40;50.60;;;;;;5095246;28;20023;-91
2022/05/19 08:56:09;;;;;;;;;;;23.50;49.20;;;;;;5094077;28;20428;-90
2022/05/19 08:58:41;;;;;;;;;;;23.50;49.80;;;;;;5080341;28;19999;-90
2022/05/19 09:01:17;;;;;;;;;;;23.30;51.70;;;;;;5096378;28;19920;-90
2022/05/19 09:03:55;;;;;;;;;;;23.30;51.40;;;;;;5092938;28;19912;-90
2022/05/19 09:06:21;;;;;;;;;;;23.20;51.60;;;;;;5094669;28;19912;-91
2022/05/19 09:08:49;;;;;;;;;;;23.40;52.00;;;;;;5094479;28;19920;-91
2022/05/19 09:11:15;;;;;;;;;;;23.50;52.60;;;;;;5096244;28;20559;-90
2022/05/19 09:13:47;;;;;;;;;;;23.60;52.00;;;;;;5095019;28;19912;-91
2022/05/19 09:16:18;;;;;;;;;;;23.80;53.60;;;;;;5094347;28;19919;-91
2022/05/19 09:18:46;;;;;;;;;;;23.80;51.50;;;;;;5092570;28;19912;-91
2022/05/19 09:21:12;;;;;;;;;;;23.90;52.20;;;;;;5101951;28;19986;-90
2022/05/19 09:23:40;;;;;;;;;;;24.00;48.20;;;;;;5093987;28;20385;-90
2022/05/19 09:26:18;;;;;;;;;;;24.10;50.30;;;;;;5089310;28;19912;-91
2022/05/19 09:28:44;;;;;;;;;;;24.00;51.00;;;;;;5092968;28;19917;-91
2022/05/19 09:31:12;;;;;;;;;;;24.10;51.10;;;;;;5092450;28;19965;-91
2022/05/19 09:33:42;;;;;;;;;;;24.30;51.20;;;;;;5095366;28;19981;-91
2022/05/19 09:36:12;;;;;;;;;;;24.10;48.50;;;;;;5096835;28;20362;-90
2022/05/19 09:38:43;;;;;;;;;;;24.00;49.30;;;;;;5092905;28;19970;-90
2022/05/19 09:41:28;;;;;;;;;;;24.00;48.90;;;;;;5092220;28;20019;-90
2022/05/19 09:43:55;;;;;;;;;;;24.20;52.30;;;;;;5095308;28;20353;-90
2022/05/19 09:46:21;;;;;;;;;;;24.30;49.20;;;;;;5090214;28;19920;-90
2022/05/19 09:49:00;;;;;;;;;;;24.50;52.60;;;;;;5086449;28;19908;-90
2022/05/19 09:51:29;;;;;;;;;;;24.60;50.60;;;;;;5091580;28;20350;-90
2022/05/19 09:53:57;;;;;;;;;;;24.60;48.50;;;;;;5102956;28;19908;-90
2022/05/19 09:56:24;;;;;;;;;;;24.70;51.00;;;;;;5090524;28;19974;-90
2022/05/19 09:58:51;;;;;;;;;;;24.70;48.80;;;;;;5088973;28;19916;-90
2022/05/19 10:01:34;;;;;;;;;;;24.70;46.40;;;;;;5089679;28;19946;-91
2022/05/19 10:04:01;;;;;;;;;;;24.80;48.70;;;;;;5089723;28;19912;-90
2022/05/19 10:06:33;;;;;;;;;;;24.90;49.70;;;;;;5091858;28;19920;-90
2022/05/19 10:09:05;;;;;;;;;;;25.00;45.50;;;;;;5095162;28;19914;-90
2022/05/19 10:11:30;;;;;;;;;;;25.10;46.60;;;;;;5094571;28;19974;-90
2022/05/19 10:14:03;;;;;;;;;;;25.20;46.40;;;;;;5094401;28;20373;-90
2022/05/19 10:16:29;;;;;;;;;;;25.20;42.80;;;;;;5094594;28;19908;-90
2022/05/19 10:19:01;;;;;;;;;;;25.00;46.30;;;;;;5094450;28;19908;-90
2022/05/19 10:21:33;;;;;;;;;;;25.10;44.40;;;;;;5094656;28;19921;-91
2022/05/19 10:24:08;;;;;;;;;;;24.90;44.40;;;;;;5094698;28;20373;-90
2022/05/19 10:26:33;;;;;;;;;;;25.10;44.20;;;;;;5094636;28;19912;-90
2022/05/19 10:32:22;;;;;;;;;;;25.30;45.10;;;;;;5032085;28;19913;-90
2022/05/19 10:34:53;;;;;;;;;;;25.40;43.70;;;;;;5032034;28;20426;-90
2022/05/19 10:37:22;;;;;;;;;;;25.50;45.10;;;;;;5063849;28;19908;-90
2022/05/19 10:40:05;;;;;;;;;;;25.50;46.00;;;;;;5094293;28;20442;-90
2022/05/19 10:42:38;;;;;;;;;;;25.50;44.60;;;;;;5094331;28;20384;-90
2022/05/19 10:45:23;;;;;;;;;;;25.70;40.70;;;;;;5094337;28;19920;-91
2022/05/19 10:47:51;;;;;;;;;;;25.50;41.30;;;;;;5094260;28;19912;-91
2022/05/19 10:50:28;;;;;;;;;;;25.80;44.20;;;;;;5094220;28;19912;-90
2022/05/19 10:53:01;;;;;;;;;;;25.90;43.60;;;;;;5094110;28;19915;-90
2022/05/19 10:55:30;;;;;;;;;;;26.10;44.00;;;;;;5094105;28;19908;-91
2022/05/19 10:58:14;;;;;;;;;;;26.30;45.10;;;;;;5093892;28;19920;-91
2022/05/19 11:00:48;;;;;;;;;;;26.50;42.80;;;;;;5093951;28;19916;-90
2022/05/19 11:03:17;;;;;;;;;;;26.70;44.20;;;;;;5093840;28;19908;-90
2022/05/19 11:05:49;;;;;;;;;;;26.70;40.80;;;;;;5091869;28;19935;-90
2022/05/19 11:08:33;;;;;;;;;;;26.50;41.70;;;;;;5074758;28;19912;-90
2022/05/19 11:10:58;;;;;;;;;;;26.50;42.30;;;;;;5093848;28;19987;-90
2022/05/19 11:13:30;;;;;;;;;;;26.60;41.50;;;;;;5093070;28;20353;-90
2022/05/19 11:16:32;;;;;;;;;;;26.70;44.70;;;;;;5093011;28;19912;-90
2022/05/19 11:19:03;;;;;;;;;;;26.60;40.40;;;;;;5005786;28;19921;-90
2022/05/19 11:21:46;;;;;;;;;;;26.20;41.00;;;;;;5077866;28;19939;-90
2022/05/19 11:24:12;;;;;;;;;;;26.30;43.80;;;;;;5092797;28;19918;-91
2022/05/19 11:26:47;;;;;;;;;;;26.60;41.90;;;;;;5092563;28;19956;-90
2022/05/19 11:29:26;;;;;;;;;;;26.80;39.00;;;;;;5098579;28;19916;-91
2022/05/19 11:32:04;;;;;;;;;;;27.10;40.00;;;;;;5091264;28;19958;-90
2022/05/19 11:34:39;;;;;;;;;;;27.10;39.70;;;;;;5090980;28;19947;-90
2022/05/19 11:37:23;;;;;;;;;;;27.40;40.00;;;;;;5090087;28;19912;-91
2022/05/19 11:40:07;;;;;;;;;;;27.60;39.10;;;;;;5087714;28;19920;-90
2022/05/19 11:42:56;;;;;;;;;;;27.20;36.20;;;;;;5091556;28;19916;-90
2022/05/19 11:45:28;;;;;;;;;;;27.00;40.80;;;;;;5081659;28;19916;-90
2022/05/19 11:56:27;;;;;;;;;;;26.90;39.40;;;;;;5090281;28;19958;-91
2022/05/19 11:58:52;;;;;;;;;;;27.10;39.90;;;;;;5092526;28;20327;-90
2022/05/19 12:01:25;;;;;;;;;;;27.30;39.70;;;;;;5088914;28;19956;-90
2022/05/19 12:03:50;;;;;;;;;;;27.70;38.50;;;;;;5090972;28;19923;-91
2022/05/19 12:06:20;;;;;;;;;;;28.00;38.30;;;;;;5090456;28;19912;-91
2022/05/19 12:09:16;;;;;;;;;;;28.60;35.90;;;;;;5092436;28;20003;-91
2022/05/19 12:11:45;;;;;;;;;;;29.20;36.40;;;;;;5073768;28;19920;-91
2022/05/19 12:14:11;;;;;;;;;;;30.00;35.30;;;;;;5092692;28;19985;-91
2022/05/19 12:16:48;;;;;;;;;;;30.00;34.40;;;;;;5090034;28;20369;-91
2022/05/19 12:19:34;;;;;;;;;;;29.20;34.40;;;;;;5089288;28;19912;-91
2022/05/19 12:22:01;;;;;;;;;;;29.10;34.90;;;;;;5088297;28;19931;-90
2022/05/19 12:24:30;;;;;;;;;;;28.80;36.20;;;;;;5086292;28;19921;-91
2022/05/19 12:27:01;;;;;;;;;;;29.00;35.00;;;;;;5089198;28;19921;-91
2022/05/19 12:29:32;;;;;;;;;;;29.10;36.50;;;;;;5096172;28;19945;-91
2022/05/19 12:32:07;;;;;;;;;;;29.80;35.80;;;;;;5091173;28;19966;-92
2022/05/19 12:34:43;;;;;;;;;;;30.50;34.00;;;;;;5088790;28;19912;-91
2022/05/19 12:37:15;;;;;;;;;;;30.70;34.00;;;;;;5089222;28;20409;-91
2022/05/19 12:39:45;;;;;;;;;;;31.00;33.30;;;;;;5090422;28;20381;-91
2022/05/19 12:42:17;;;;;;;;;;;31.20;31.10;;;;;;5090944;28;20365;-91
2022/05/19 12:44:55;;;;;;;;;;;31.50;32.20;;;;;;5091636;28;19919;-92
2022/05/19 12:47:20;;;;;;;;;;;32.20;31.00;;;;;;5092180;28;19931;-91
2022/05/19 12:50:01;;;;;;;;;;;32.30;30.60;;;;;;5087656;28;19913;-91
2022/05/19 12:53:04;;;;;;;;;;;32.20;31.00;;;;;;5091785;28;19927;-92
2022/05/19 12:55:44;;;;;;;;;;;31.70;30.20;;;;;;4982144;28;20135;-92
2022/05/19 12:58:28;;;;;;;;;;;32.50;32.30;;;;;;5079015;28;19923;-92
2022/05/19 13:00:54;;;;;;;;;;;33.10;31.80;;;;;;5097690;28;20010;-92
2022/05/19 13:03:24;;;;;;;;;;;33.00;29.80;;;;;;5091531;28;20777;-92
2022/05/19 13:05:54;;;;;;;;;;;33.60;29.70;;;;;;5092771;28;19912;-91
2022/05/19 13:08:31;;;;;;;;;;;34.20;29.40;;;;;;5090256;28;19916;-92
2022/05/19 13:10:59;;;;;;;;;;;34.30;28.70;;;;;;5088609;28;19965;-92
2022/05/19 13:13:31;;;;;;;;;;;34.60;30.20;;;;;;5094981;28;19916;-92
2022/05/19 13:15:58;;;;;;;;;;;35.50;28.30;;;;;;5093384;28;19912;-92
2022/05/19 13:18:28;;;;;;;;;;;35.80;28.80;;;;;;5091917;28;19963;-91
2022/05/19 13:21:08;;;;;;;;;;;35.10;28.40;;;;;;5078896;28;20007;-92
2022/05/19 13:23:37;;;;;;;;;;;34.30;26.90;;;;;;5092838;28;19912;-92
2022/05/19 13:26:21;;;;;;;;;;;34.20;27.50;;;;;;5094754;28;20006;-92
